sensor_id;sensor_type;location;lat;lon;timestamp;temperature;humidity
8269;DHT22;4174;48.304;16.364;2023-09-19T00:05:21;21.00;99.90
8269;DHT22;4174;48.304;16.364;2023-09-19T00:11:24;21.00;99.90
8269;DHT22;4174;48.304;16.364;2023-09-19T00:17:27;20.90;99.90
8269;DHT22;4174;48.304;16.364;2023-09-19T00:23:30;20.90;99.90
8269;DHT22;4174;48.304;16.364;2023-09-19T00:29:34;20.90;99.90
8269;DHT22;4174;48.304;16.364;2023-09-19T00:35:39;20.90;99.90
8269;DHT22;4174;48.304;16.364;2023-09-19T00:41:42;20.60;99.90
8269;DHT22;4174;48.304;16.364;2023-09-19T00:47:48;20.30;99.90
8269;DHT22;4174;48.304;16.364;2023-09-19T00:53:49;19.90;99.90
8269;DHT22;4174;48.304;16.364;2023-09-19T00:59:53;19.30;99.90
8269;DHT22;4174;48.304;16.364;2023-09-19T01:05:57;19.30;99.90
8269;DHT22;4174;48.304;16.364;2023-09-19T01:12:01;19.00;99.90
8269;DHT22;4174;48.304;16.364;2023-09-19T01:18:25;18.80;99.90
8269;DHT22;4174;48.304;16.364;2023-09-19T01:24:47;18.60;99.90
8269;DHT22;4174;48.304;16.364;2023-09-19T01:31:03;18.60;99.90
8269;DHT22;4174;48.304;16.364;2023-09-19T01:37:06;18.50;99.90
8269;DHT22;4174;48.304;16.364;2023-09-19T01:43:28;18.40;99.90
8269;DHT22;4174;48.304;16.364;2023-09-19T01:49:36;18.30;99.90
8269;DHT22;4174;48.304;16.364;2023-09-19T01:55:36;18.30;99.90
8269;DHT22;4174;48.304;16.364;2023-09-19T02:01:39;18.20;99.90
8269;DHT22;4174;48.304;16.364;2023-09-19T02:07:42;18.10;99.90
8269;DHT22;4174;48.304;16.364;2023-09-19T02:13:45;18.10;99.90
8269;DHT22;4174;48.304;16.364;2023-09-19T02:19:48;17.90;99.90
8269;DHT22;4174;48.304;16.364;2023-09-19T02:25:53;17.70;99.90
8269;DHT22;4174;48.304;16.364;2023-09-19T02:31:56;17.70;99.90
8269;DHT22;4174;48.304;16.364;2023-09-19T02:38:00;17.70;99.90
8269;DHT22;4174;48.304;16.364;2023-09-19T02:44:04;17.80;99.90
8269;DHT22;4174;48.304;16.364;2023-09-19T02:50:09;17.80;99.90
8269;DHT22;4174;48.304;16.364;2023-09-19T02:56:13;17.90;99.90
8269;DHT22;4174;48.304;16.364;2023-09-19T03:02:16;17.90;99.90
8269;DHT22;4174;48.304;16.364;2023-09-19T03:08:19;18.00;99.90
8269;DHT22;4174;48.304;16.364;2023-09-19T03:14:23;17.90;99.90
8269;DHT22;4174;48.304;16.364;2023-09-19T03:20:27;17.90;99.90
8269;DHT22;4174;48.304;16.364;2023-09-19T03:26:31;18.10;99.90
8269;DHT22;4174;48.304;16.364;2023-09-19T03:32:35;18.30;99.90
8269;DHT22;4174;48.304;16.364;2023-09-19T03:38:38;18.40;99.90
8269;DHT22;4174;48.304;16.364;2023-09-19T03:44:42;18.30;99.90
8269;DHT22;4174;48.304;16.364;2023-09-19T03:50:46;18.00;99.90
8269;DHT22;4174;48.304;16.364;2023-09-19T03:56:49;18.20;99.90
8269;DHT22;4174;48.304;16.364;2023-09-19T04:02:53;18.40;99.90
8269;DHT22;4174;48.304;16.364;2023-09-19T04:08:56;18.30;99.90
8269;DHT22;4174;48.304;16.364;2023-09-19T04:15:00;18.10;99.90
8269;DHT22;4174;48.304;16.364;2023-09-19T04:21:03;18.20;99.90
8269;DHT22;4174;48.304;16.364;2023-09-19T04:27:06;18.40;99.90
8269;DHT22;4174;48.304;16.364;2023-09-19T04:33:11;18.40;99.90
8269;DHT22;4174;48.304;16.364;2023-09-19T04:39:14;18.60;99.90
8269;DHT22;4174;48.304;16.364;2023-09-19T04:45:19;18.40;99.90
8269;DHT22;4174;48.304;16.364;2023-09-19T04:51:23;18.40;99.90
8269;DHT22;4174;48.304;16.364;2023-09-19T04:57:27;18.40;99.90
8269;DHT22;4174;48.304;16.364;2023-09-19T05:03:31;18.40;99.90
8269;DHT22;4174;48.304;16.364;2023-09-19T05:09:35;18.40;99.90
8269;DHT22;4174;48.304;16.364;2023-09-19T05:15:38;18.40;99.90
8269;DHT22;4174;48.304;16.364;2023-09-19T05:21:42;18.60;99.90
8269;DHT22;4174;48.304;16.364;2023-09-19T05:27:45;18.40;99.90
8269;DHT22;4174;48.304;16.364;2023-09-19T05:33:49;18.30;99.90
8269;DHT22;4174;48.304;16.364;2023-09-19T05:39:53;18.10;99.90
8269;DHT22;4174;48.304;16.364;2023-09-19T05:45:56;18.20;99.90
8269;DHT22;4174;48.304;16.364;2023-09-19T05:51:59;18.30;99.90
8269;DHT22;4174;48.304;16.364;2023-09-19T05:58:03;18.40;99.90
8269;DHT22;4174;48.304;16.364;2023-09-19T06:04:06;18.60;99.90
8269;DHT22;4174;48.304;16.364;2023-09-19T06:10:10;18.80;99.90
8269;DHT22;4174;48.304;16.364;2023-09-19T06:16:13;18.90;99.90
8269;DHT22;4174;48.304;16.364;2023-09-19T06:22:17;19.10;99.90
8269;DHT22;4174;48.304;16.364;2023-09-19T06:28:20;19.20;99.90
8269;DHT22;4174;48.304;16.364;2023-09-19T06:34:23;19.40;99.90
8269;DHT22;4174;48.304;16.364;2023-09-19T06:40:27;19.50;99.90
8269;DHT22;4174;48.304;16.364;2023-09-19T06:46:30;19.60;99.90
8269;DHT22;4174;48.304;16.364;2023-09-19T06:52:33;19.50;99.90
8269;DHT22;4174;48.304;16.364;2023-09-19T06:58:37;19.50;99.90
8269;DHT22;4174;48.304;16.364;2023-09-19T07:04:41;19.60;99.90
8269;DHT22;4174;48.304;16.364;2023-09-19T07:10:45;19.60;99.90
8269;DHT22;4174;48.304;16.364;2023-09-19T07:16:50;19.60;99.90
8269;DHT22;4174;48.304;16.364;2023-09-19T07:22:54;19.60;99.90
8269;DHT22;4174;48.304;16.364;2023-09-19T07:28:57;19.90;99.90
8269;DHT22;4174;48.304;16.364;2023-09-19T07:35:00;19.50;99.90
8269;DHT22;4174;48.304;16.364;2023-09-19T07:41:04;19.40;99.90
8269;DHT22;4174;48.304;16.364;2023-09-19T07:47:07;19.40;99.90
8269;DHT22;4174;48.304;16.364;2023-09-19T07:53:11;19.60;99.90
8269;DHT22;4174;48.304;16.364;2023-09-19T07:59:15;19.80;99.90
8269;DHT22;4174;48.304;16.364;2023-09-19T08:05:18;19.80;99.90
8269;DHT22;4174;48.304;16.364;2023-09-19T08:11:23;19.90;99.90
8269;DHT22;4174;48.304;16.364;2023-09-19T08:17:27;19.50;99.90
8269;DHT22;4174;48.304;16.364;2023-09-19T08:23:30;19.60;99.90
8269;DHT22;4174;48.304;16.364;2023-09-19T08:29:34;19.70;99.90
8269;DHT22;4174;48.304;16.364;2023-09-19T08:35:37;20.00;99.90
8269;DHT22;4174;48.304;16.364;2023-09-19T08:41:40;20.40;99.90
8269;DHT22;4174;48.304;16.364;2023-09-19T08:47:46;20.40;99.90
8269;DHT22;4174;48.304;16.364;2023-09-19T08:53:58;20.60;99.90
8269;DHT22;4174;48.304;16.364;2023-09-19T09:00:06;20.50;99.90
8269;DHT22;4174;48.304;16.364;2023-09-19T09:06:13;20.50;99.90
8269;DHT22;4174;48.304;16.364;2023-09-19T09:12:14;20.60;99.90
8269;DHT22;4174;48.304;16.364;2023-09-19T09:18:17;20.70;99.90
8269;DHT22;4174;48.304;16.364;2023-09-19T09:24:28;20.60;99.90
8269;DHT22;4174;48.304;16.364;2023-09-19T09:30:33;20.60;99.90
8269;DHT22;4174;48.304;16.364;2023-09-19T09:36:38;20.60;99.90
8269;DHT22;4174;48.304;16.364;2023-09-19T09:42:39;20.60;99.90
8269;DHT22;4174;48.304;16.364;2023-09-19T09:48:42;20.80;99.90
8269;DHT22;4174;48.304;16.364;2023-09-19T10:01:00;22.70;99.90
8269;DHT22;4174;48.304;16.364;2023-09-19T10:07:03;24.00;99.90
8269;DHT22;4174;48.304;16.364;2023-09-19T10:13:08;24.20;99.90
8269;DHT22;4174;48.304;16.364;2023-09-19T10:19:10;24.60;99.90
8269;DHT22;4174;48.304;16.364;2023-09-19T10:25:13;24.90;99.90
8269;DHT22;4174;48.304;16.364;2023-09-19T10:31:18;25.50;99.90
8269;DHT22;4174;48.304;16.364;2023-09-19T10:37:20;26.20;99.90
8269;DHT22;4174;48.304;16.364;2023-09-19T10:43:30;27.20;99.90
8269;DHT22;4174;48.304;16.364;2023-09-19T10:49:24;27.40;99.90
8269;DHT22;4174;48.304;16.364;2023-09-19T10:55:28;27.50;99.90
8269;DHT22;4174;48.304;16.364;2023-09-19T11:01:41;27.50;99.90
8269;DHT22;4174;48.304;16.364;2023-09-19T11:07:58;28.20;99.90
8269;DHT22;4174;48.304;16.364;2023-09-19T11:20:18;29.20;99.90
8269;DHT22;4174;48.304;16.364;2023-09-19T11:39:02;25.60;99.90
8269;DHT22;4174;48.304;16.364;2023-09-19T11:45:05;25.70;99.90
8269;DHT22;4174;48.304;16.364;2023-09-19T11:51:11;25.60;99.90
8269;DHT22;4174;48.304;16.364;2023-09-19T11:57:13;25.70;99.90
8269;DHT22;4174;48.304;16.364;2023-09-19T12:03:16;26.10;99.90
8269;DHT22;4174;48.304;16.364;2023-09-19T12:09:19;25.40;99.90
8269;DHT22;4174;48.304;16.364;2023-09-19T12:15:23;24.90;99.90
8269;DHT22;4174;48.304;16.364;2023-09-19T12:21:29;25.90;99.90
8269;DHT22;4174;48.304;16.364;2023-09-19T12:27:41;25.90;99.90
8269;DHT22;4174;48.304;16.364;2023-09-19T12:33:35;27.60;99.90
8269;DHT22;4174;48.304;16.364;2023-09-19T12:39:39;29.30;99.90
8269;DHT22;4174;48.304;16.364;2023-09-19T12:45:42;29.20;99.90
8269;DHT22;4174;48.304;16.364;2023-09-19T12:51:46;28.20;99.90
8269;DHT22;4174;48.304;16.364;2023-09-19T12:57:55;27.50;99.90
8269;DHT22;4174;48.304;16.364;2023-09-19T13:04:18;26.50;99.90
8269;DHT22;4174;48.304;16.364;2023-09-19T13:10:22;25.50;99.90
8269;DHT22;4174;48.304;16.364;2023-09-19T13:16:25;24.10;99.90
8269;DHT22;4174;48.304;16.364;2023-09-19T13:22:37;23.60;99.90
8269;DHT22;4174;48.304;16.364;2023-09-19T13:28:40;23.20;99.90
8269;DHT22;4174;48.304;16.364;2023-09-19T13:34:43;22.40;99.90
8269;DHT22;4174;48.304;16.364;2023-09-19T13:40:46;22.40;99.90
8269;DHT22;4174;48.304;16.364;2023-09-19T13:46:50;21.90;99.90
8269;DHT22;4174;48.304;16.364;2023-09-19T13:52:53;21.70;99.90
8269;DHT22;4174;48.304;16.364;2023-09-19T13:58:57;21.90;99.90
8269;DHT22;4174;48.304;16.364;2023-09-19T14:05:00;22.00;99.90
8269;DHT22;4174;48.304;16.364;2023-09-19T14:11:06;22.80;99.90
8269;DHT22;4174;48.304;16.364;2023-09-19T14:17:09;22.80;99.90
8269;DHT22;4174;48.304;16.364;2023-09-19T14:23:12;23.00;99.90
8269;DHT22;4174;48.304;16.364;2023-09-19T14:29:16;23.10;99.90
8269;DHT22;4174;48.304;16.364;2023-09-19T14:35:20;23.50;99.90
8269;DHT22;4174;48.304;16.364;2023-09-19T14:41:23;23.80;99.90
8269;DHT22;4174;48.304;16.364;2023-09-19T14:47:25;23.80;99.90
8269;DHT22;4174;48.304;16.364;2023-09-19T14:53:29;23.70;99.90
8269;DHT22;4174;48.304;16.364;2023-09-19T14:59:31;23.50;99.90
8269;DHT22;4174;48.304;16.364;2023-09-19T15:05:35;23.00;99.90
8269;DHT22;4174;48.304;16.364;2023-09-19T15:11:38;22.80;99.90
8269;DHT22;4174;48.304;16.364;2023-09-19T15:17:42;22.30;99.90
8269;DHT22;4174;48.304;16.364;2023-09-19T15:23:45;22.30;99.90
8269;DHT22;4174;48.304;16.364;2023-09-19T15:29:48;22.40;99.90
8269;DHT22;4174;48.304;16.364;2023-09-19T15:35:52;22.30;99.90
8269;DHT22;4174;48.304;16.364;2023-09-19T15:41:55;22.30;99.90
8269;DHT22;4174;48.304;16.364;2023-09-19T15:47:59;22.40;99.90
8269;DHT22;4174;48.304;16.364;2023-09-19T15:54:07;22.30;99.90
8269;DHT22;4174;48.304;16.364;2023-09-19T16:00:09;22.30;99.90
8269;DHT22;4174;48.304;16.364;2023-09-19T16:06:15;22.20;99.90
8269;DHT22;4174;48.304;16.364;2023-09-19T16:12:18;22.10;99.90
8269;DHT22;4174;48.304;16.364;2023-09-19T16:18:21;21.80;99.90
8269;DHT22;4174;48.304;16.364;2023-09-19T16:24:25;21.50;99.90
8269;DHT22;4174;48.304;16.364;2023-09-19T16:30:28;21.40;99.90
8269;DHT22;4174;48.304;16.364;2023-09-19T16:36:31;21.20;99.90
8269;DHT22;4174;48.304;16.364;2023-09-19T16:42:36;20.70;99.90
8269;DHT22;4174;48.304;16.364;2023-09-19T16:48:39;20.70;99.90
8269;DHT22;4174;48.304;16.364;2023-09-19T16:54:41;20.70;99.90
8269;DHT22;4174;48.304;16.364;2023-09-19T17:00:45;20.60;99.90
8269;DHT22;4174;48.304;16.364;2023-09-19T17:06:48;20.50;99.90
8269;DHT22;4174;48.304;16.364;2023-09-19T17:12:54;20.50;99.90
8269;DHT22;4174;48.304;16.364;2023-09-19T17:18:57;20.40;99.90
8269;DHT22;4174;48.304;16.364;2023-09-19T17:25:01;20.40;99.90
8269;DHT22;4174;48.304;16.364;2023-09-19T17:31:11;20.30;99.90
8269;DHT22;4174;48.304;16.364;2023-09-19T17:37:13;20.20;99.90
8269;DHT22;4174;48.304;16.364;2023-09-19T17:43:20;20.00;99.90
8269;DHT22;4174;48.304;16.364;2023-09-19T17:49:24;20.00;99.90
8269;DHT22;4174;48.304;16.364;2023-09-19T17:55:27;19.80;99.90
8269;DHT22;4174;48.304;16.364;2023-09-19T18:01:31;19.70;99.90
8269;DHT22;4174;48.304;16.364;2023-09-19T18:07:35;19.60;99.90
8269;DHT22;4174;48.304;16.364;2023-09-19T18:13:38;19.50;99.90
8269;DHT22;4174;48.304;16.364;2023-09-19T18:19:42;19.40;99.90
8269;DHT22;4174;48.304;16.364;2023-09-19T18:25:47;19.30;99.90
8269;DHT22;4174;48.304;16.364;2023-09-19T18:31:50;19.30;99.90
8269;DHT22;4174;48.304;16.364;2023-09-19T18:37:54;19.20;99.90
8269;DHT22;4174;48.304;16.364;2023-09-19T18:43:57;19.20;99.90
8269;DHT22;4174;48.304;16.364;2023-09-19T18:50:01;19.20;99.90
8269;DHT22;4174;48.304;16.364;2023-09-19T18:56:04;19.20;99.90
8269;DHT22;4174;48.304;16.364;2023-09-19T19:02:08;19.20;99.90
8269;DHT22;4174;48.304;16.364;2023-09-19T19:08:12;19.10;99.90
8269;DHT22;4174;48.304;16.364;2023-09-19T19:14:16;19.10;99.90
8269;DHT22;4174;48.304;16.364;2023-09-19T19:20:20;18.90;99.90
8269;DHT22;4174;48.304;16.364;2023-09-19T19:26:23;18.60;99.90
8269;DHT22;4174;48.304;16.364;2023-09-19T19:32:26;18.50;99.90
8269;DHT22;4174;48.304;16.364;2023-09-19T19:38:29;18.50;99.90
8269;DHT22;4174;48.304;16.364;2023-09-19T19:44:33;18.40;99.90
8269;DHT22;4174;48.304;16.364;2023-09-19T19:50:37;18.40;99.90
8269;DHT22;4174;48.304;16.364;2023-09-19T19:56:38;18.40;99.90
8269;DHT22;4174;48.304;16.364;2023-09-19T20:02:43;18.30;99.90
8269;DHT22;4174;48.304;16.364;2023-09-19T20:08:45;18.30;99.90
8269;DHT22;4174;48.304;16.364;2023-09-19T20:14:48;18.30;99.90
8269;DHT22;4174;48.304;16.364;2023-09-19T20:20:52;18.20;99.90
8269;DHT22;4174;48.304;16.364;2023-09-19T20:26:56;18.20;99.90
8269;DHT22;4174;48.304;16.364;2023-09-19T20:33:00;18.10;99.90
8269;DHT22;4174;48.304;16.364;2023-09-19T20:39:05;18.00;99.90
8269;DHT22;4174;48.304;16.364;2023-09-19T20:45:09;18.00;99.90
8269;DHT22;4174;48.304;16.364;2023-09-19T20:51:14;18.00;99.90
8269;DHT22;4174;48.304;16.364;2023-09-19T20:57:18;17.90;99.90
8269;DHT22;4174;48.304;16.364;2023-09-19T21:03:21;17.80;99.90
8269;DHT22;4174;48.304;16.364;2023-09-19T21:09:25;17.70;99.90
8269;DHT22;4174;48.304;16.364;2023-09-19T21:15:28;17.60;99.90
8269;DHT22;4174;48.304;16.364;2023-09-19T21:21:33;17.50;99.90
8269;DHT22;4174;48.304;16.364;2023-09-19T21:27:37;17.50;99.90
8269;DHT22;4174;48.304;16.364;2023-09-19T21:33:41;17.50;99.90
8269;DHT22;4174;48.304;16.364;2023-09-19T21:39:44;17.50;99.90
8269;DHT22;4174;48.304;16.364;2023-09-19T21:45:48;17.50;99.90
8269;DHT22;4174;48.304;16.364;2023-09-19T21:51:51;17.50;99.90
8269;DHT22;4174;48.304;16.364;2023-09-19T21:57:54;17.50;99.90
8269;DHT22;4174;48.304;16.364;2023-09-19T22:03:58;17.50;99.90
8269;DHT22;4174;48.304;16.364;2023-09-19T22:10:01;17.50;99.90
8269;DHT22;4174;48.304;16.364;2023-09-19T22:16:05;17.40;99.90
8269;DHT22;4174;48.304;16.364;2023-09-19T22:22:08;17.40;99.90
8269;DHT22;4174;48.304;16.364;2023-09-19T22:28:12;17.50;99.90
8269;DHT22;4174;48.304;16.364;2023-09-19T22:34:14;17.60;99.90
8269;DHT22;4174;48.304;16.364;2023-09-19T22:40:19;17.60;99.90
8269;DHT22;4174;48.304;16.364;2023-09-19T22:46:23;17.60;99.90
8269;DHT22;4174;48.304;16.364;2023-09-19T22:52:29;17.60;99.90
8269;DHT22;4174;48.304;16.364;2023-09-19T22:58:33;17.60;99.90
8269;DHT22;4174;48.304;16.364;2023-09-19T23:04:36;17.60;99.90
8269;DHT22;4174;48.304;16.364;2023-09-19T23:10:42;17.40;99.90
8269;DHT22;4174;48.304;16.364;2023-09-19T23:16:47;17.40;99.90
8269;DHT22;4174;48.304;16.364;2023-09-19T23:23:05;17.30;99.90
8269;DHT22;4174;48.304;16.364;2023-09-19T23:29:08;17.20;99.90
8269;DHT22;4174;48.304;16.364;2023-09-19T23:35:12;17.10;99.90
8269;DHT22;4174;48.304;16.364;2023-09-19T23:41:16;17.20;99.90
8269;DHT22;4174;48.304;16.364;2023-09-19T23:47:20;17.20;99.90
8269;DHT22;4174;48.304;16.364;2023-09-19T23:53:23;17.30;99.90
8269;DHT22;4174;48.304;16.364;2023-09-19T23:59:27;17.30;99.90
